createdAt,value
2022-12-01T11:20:43.917Z,5.10
2022-12-01T11:23:24.494Z,5.10
2022-12-01T11:26:01.537Z,5.30
2022-12-01T11:28:29.561Z,5.40
2022-12-01T11:31:04.108Z,5.50
2022-12-01T11:33:38.192Z,5.10
2022-12-01T11:36:06.051Z,4.60
2022-12-01T11:38:34.766Z,3.90
2022-12-01T11:41:02.107Z,3.20
2022-12-01T11:43:33.055Z,2.40
2022-12-01T11:46:04.426Z,1.90
2022-12-01T11:48:37.068Z,1.70
2022-12-01T11:51:06.460Z,2.20
2022-12-01T11:53:36.528Z,2.20
2022-12-01T11:56:23.692Z,2.40
2022-12-01T11:59:03.459Z,2.00
2022-12-01T12:01:39.738Z,1.50
2022-12-01T12:04:12.724Z,1.20
2022-12-01T12:07:01.355Z,0.70
2022-12-01T12:09:44.943Z,0.50
2022-12-01T12:12:45.433Z,0.50
2022-12-01T12:15:36.934Z,0.60
2022-12-01T12:18:13.129Z,1.00
2022-12-01T12:20:55.103Z,1.10
2022-12-01T12:23:37.204Z,0.90
2022-12-01T12:26:29.283Z,0.80
2022-12-01T12:29:13.491Z,0.90
2022-12-01T12:32:02.109Z,0.90
2022-12-01T12:35:00.497Z,0.40
2022-12-01T12:37:46.052Z,0.00
2022-12-01T12:40:18.755Z,-0.30
2022-12-01T12:43:18.090Z,-0.30
2022-12-01T12:46:16.305Z,-0.40
2022-12-01T12:49:19.791Z,-0.50
2022-12-01T12:52:08.150Z,-0.80
2022-12-01T12:54:50.840Z,-0.90
2022-12-01T12:57:31.537Z,-1.00
2022-12-01T13:00:13.541Z,-1.20
2022-12-01T13:03:13.345Z,-1.30
2022-12-01T13:05:49.516Z,-1.40
2022-12-01T13:08:47.967Z,-1.40
2022-12-01T13:11:32.682Z,-1.50
2022-12-01T13:14:38.146Z,-1.70
2022-12-01T13:17:49.414Z,-1.80
2022-12-01T13:20:19.442Z,-2.00
2022-12-01T13:22:47.592Z,-2.10
2022-12-01T13:25:18.128Z,-2.20
2022-12-01T13:27:47.552Z,-2.30
2022-12-01T13:30:26.402Z,-2.40
2022-12-01T13:33:03.456Z,-2.50
2022-12-01T13:35:37.029Z,-2.60
2022-12-01T13:38:39.967Z,-2.70
2022-12-01T13:41:19.271Z,-2.90
2022-12-01T13:44:03.961Z,-2.90
2022-12-01T13:46:49.830Z,-3.00
2022-12-01T13:49:40.693Z,-3.10
2022-12-01T13:52:21.133Z,-3.20
2022-12-01T13:55:10.075Z,-3.20
2022-12-01T13:57:44.060Z,-3.30
2022-12-01T14:00:34.855Z,-3.40
2022-12-01T14:03:20.397Z,-3.40
2022-12-01T14:05:53.837Z,-3.50
2022-12-01T14:08:33.439Z,-3.50
2022-12-01T14:11:18.480Z,-3.60
2022-12-01T14:14:25.845Z,-3.70
2022-12-01T14:17:01.155Z,-3.70
2022-12-01T14:19:46.274Z,-3.80
2022-12-01T14:22:44.192Z,-3.80
2022-12-01T14:25:20.579Z,-3.80
2022-12-01T14:27:51.076Z,-4.00
2022-12-01T14:30:40.099Z,-4.00
2022-12-01T14:33:47.816Z,-4.10
2022-12-01T14:36:23.979Z,-4.00
2022-12-01T14:39:03.555Z,-4.10
2022-12-01T14:41:41.630Z,-4.10
2022-12-01T14:44:31.872Z,-4.20
2022-12-01T14:47:11.016Z,-4.20
2022-12-01T14:49:54.016Z,-4.30
2022-12-01T14:52:27.170Z,-4.40
2022-12-01T14:55:01.734Z,-4.40
2022-12-01T14:57:34.436Z,-4.50
2022-12-01T15:00:12.506Z,-4.50
2022-12-01T15:03:03.293Z,-4.40
2022-12-01T15:05:39.621Z,-4.40
2022-12-01T15:09:04.036Z,-4.40
2022-12-01T15:11:22.061Z,-4.30
2022-12-01T15:13:50.318Z,-4.30
2022-12-01T15:16:20.933Z,-4.30
2022-12-01T15:18:49.315Z,-4.40
2022-12-01T15:21:24.166Z,-4.40
2022-12-01T15:24:03.559Z,-4.40
2022-12-01T15:26:34.304Z,-4.50
2022-12-01T15:29:05.626Z,-4.50
2022-12-01T15:31:34.201Z,-4.60
2022-12-01T15:34:01.591Z,-4.50
2022-12-01T15:36:28.906Z,-4.50
2022-12-01T15:39:00.981Z,-4.60
2022-12-01T15:41:31.194Z,-4.60
2022-12-01T15:44:03.776Z,-4.50
2022-12-01T15:46:37.487Z,-4.60
2022-12-01T15:49:08.671Z,-4.60
2022-12-01T15:51:36.429Z,-4.60
2022-12-01T15:54:04.524Z,-4.60
2022-12-01T15:56:37.837Z,-4.60
2022-12-01T15:59:09.839Z,-4.60
2022-12-01T16:01:37.896Z,-4.70
2022-12-01T16:04:16.555Z,-4.70
2022-12-01T16:06:51.974Z,-4.70
2022-12-01T16:09:26.440Z,-4.80
2022-12-01T16:12:20.724Z,-4.80
2022-12-01T16:14:56.398Z,-4.80
2022-12-01T16:17:24.723Z,-4.90
2022-12-01T16:20:18.250Z,-5.00
2022-12-01T18:22:39.841Z,-5.70
2022-12-01T18:25:07.301Z,-5.70
2022-12-01T18:27:34.551Z,-5.70
2022-12-01T18:30:01.764Z,-5.70
2022-12-01T18:32:29.019Z,-5.70
2022-12-01T18:34:56.185Z,-5.70
2022-12-01T18:37:23.348Z,-5.70
2022-12-01T18:39:50.608Z,-5.70
2022-12-01T18:42:17.872Z,-5.70
2022-12-01T18:44:44.974Z,-5.70
2022-12-01T18:47:12.247Z,-5.80
2022-12-01T18:49:39.574Z,-5.80
2022-12-01T18:52:06.768Z,-5.80
2022-12-01T18:54:35.876Z,-5.90
2022-12-01T18:57:03.110Z,-5.90
2022-12-01T18:59:30.372Z,-5.90
2022-12-01T19:01:57.551Z,-5.90
2022-12-01T19:04:24.778Z,-5.90
2022-12-01T19:06:51.955Z,-5.90
2022-12-01T19:09:19.515Z,-5.90
2022-12-01T19:11:47.018Z,-5.90
2022-12-01T19:14:17.024Z,-5.90
2022-12-01T19:16:45.282Z,-6.00
2022-12-01T19:19:12.840Z,-6.00
2022-12-01T19:21:39.940Z,-6.10
2022-12-01T19:24:07.459Z,-6.10
2022-12-01T19:26:34.678Z,-6.20
2022-12-01T19:29:01.808Z,-6.20
2022-12-01T19:31:29.080Z,-6.30
2022-12-01T19:33:56.709Z,-6.30
2022-12-01T19:36:26.809Z,-6.30
2022-12-01T19:39:00.430Z,-6.30
2022-12-01T19:41:28.744Z,-6.30
2022-12-01T19:43:56.349Z,-6.30
2022-12-01T19:46:25.300Z,-6.30
2022-12-01T19:48:58.944Z,-6.30
2022-12-01T19:51:36.791Z,-6.30
2022-12-01T19:54:06.587Z,-6.40
2022-12-01T19:56:34.578Z,-6.40
2022-12-01T19:59:01.851Z,-6.40
2022-12-01T20:01:29.252Z,-6.50
2022-12-01T20:03:56.594Z,-6.50
2022-12-01T20:06:29.113Z,-6.50
2022-12-01T20:09:01.352Z,-6.50
2022-12-01T20:11:35.636Z,-6.50
2022-12-01T20:14:05.073Z,-6.50
2022-12-01T20:16:32.548Z,-6.50
2022-12-01T20:19:04.320Z,-6.50
2022-12-01T20:21:39.402Z,-6.50
2022-12-01T20:24:07.921Z,-6.50
2022-12-01T20:26:45.205Z,-6.50
2022-12-01T20:29:15.647Z,-6.50
2022-12-01T20:31:43.461Z,-6.50
2022-12-01T20:34:15.099Z,-6.50
2022-12-01T20:36:42.790Z,-6.50
2022-12-01T20:39:12.026Z,-6.50
2022-12-01T20:41:40.239Z,-6.50
2022-12-01T20:44:08.455Z,-6.50
2022-12-01T20:46:37.371Z,-6.50
2022-12-01T20:49:05.669Z,-6.50
2022-12-01T20:51:33.585Z,-6.60
2022-12-01T20:54:26.882Z,-6.60
2022-12-01T20:56:49.353Z,-6.60
2022-12-01T20:59:17.996Z,-6.60
2022-12-01T21:01:45.300Z,-6.50
2022-12-01T21:04:12.469Z,-6.50
2022-12-01T21:06:39.650Z,-6.50
2022-12-01T21:09:07.741Z,-6.50
2022-12-01T21:12:07.209Z,-6.50
2022-12-01T21:14:54.221Z,-6.50
2022-12-01T21:17:35.555Z,-6.50
2022-12-01T21:20:21.830Z,-6.50
2022-12-01T21:22:51.332Z,-6.50
2022-12-01T21:25:22.520Z,-6.50
2022-12-01T21:27:50.347Z,-6.50
2022-12-01T21:30:21.205Z,-6.50
2022-12-01T21:32:49.820Z,-6.50
2022-12-01T21:35:24.981Z,-6.50
2022-12-01T21:37:59.249Z,-6.50
2022-12-01T21:40:27.190Z,-6.50
2022-12-01T21:42:55.241Z,-6.50
2022-12-01T21:45:30.108Z,-6.50
2022-12-01T21:48:24.025Z,-6.50
2022-12-01T21:51:05.055Z,-6.50
2022-12-01T21:53:37.205Z,-6.50
2022-12-01T21:56:04.566Z,-6.50
2022-12-01T21:58:36.561Z,-6.50
2022-12-01T22:01:17.099Z,-6.50
2022-12-01T22:03:46.200Z,-6.50
2022-12-01T22:06:31.113Z,-6.50
2022-12-01T22:09:01.693Z,-6.50
2022-12-01T22:11:30.724Z,-6.50
2022-12-01T22:14:23.854Z,-6.50
2022-12-01T22:17:17.852Z,-6.50
2022-12-01T22:19:57.347Z,-6.60
2022-12-01T22:22:29.328Z,-6.60
2022-12-01T22:25:25.139Z,-6.60
2022-12-01T22:27:52.713Z,-6.60
2022-12-01T22:30:24.087Z,-6.60
2022-12-01T22:32:57.352Z,-6.60
2022-12-01T22:35:24.780Z,-6.60
2022-12-01T22:38:08.873Z,-6.60
2022-12-01T22:40:48.901Z,-6.60
2022-12-01T22:43:16.113Z,-6.60
2022-12-01T22:45:49.855Z,-6.60
2022-12-01T22:48:40.254Z,-6.60
2022-12-01T22:51:13.514Z,-6.60
2022-12-01T22:53:42.214Z,-6.70
2022-12-01T22:56:33.807Z,-6.70
2022-12-01T22:59:03.410Z,-6.70
2022-12-01T23:01:32.870Z,-6.70
2022-12-01T23:04:20.635Z,-6.70
2022-12-01T23:07:21.032Z,-6.70
2022-12-01T23:09:48.432Z,-6.70
2022-12-01T23:12:27.088Z,-6.70
2022-12-01T23:14:59.155Z,-6.70
2022-12-01T23:17:33.027Z,-6.70
2022-12-01T23:20:21.227Z,-6.60
2022-12-01T23:22:48.827Z,-6.70
2022-12-01T23:25:18.253Z,-6.70
2022-12-01T23:27:49.087Z,-6.70
2022-12-01T23:30:17.842Z,-6.70
2022-12-01T23:32:46.793Z,-6.70
2022-12-01T23:35:18.429Z,-6.70
2022-12-01T23:37:48.165Z,-6.60
2022-12-01T23:40:23.446Z,-6.60
2022-12-01T23:42:51.364Z,-6.70
2022-12-01T23:45:27.459Z,-6.60
2022-12-01T23:47:56.898Z,-6.70
2022-12-01T23:50:26.519Z,-6.60
2022-12-01T23:52:54.527Z,-6.60
2022-12-01T23:55:28.827Z,-6.60
2022-12-01T23:57:56.868Z,-6.70
